createdAt,value
2019-01-10T00:00:14.026Z,0.30
2019-01-10T00:02:42.589Z,0.30
2019-01-10T00:05:11.872Z,0.40
2019-01-10T00:07:40.403Z,0.40
2019-01-10T00:10:13.810Z,0.40
2019-01-10T00:12:41.844Z,0.40
2019-01-10T00:15:15.990Z,0.40
2019-01-10T00:17:44.545Z,0.40
2019-01-10T00:20:14.779Z,0.40
2019-01-10T00:22:43.310Z,0.40
2019-01-10T00:25:13.495Z,0.40
2019-01-10T00:27:41.918Z,0.40
2019-01-10T00:30:18.722Z,0.40
2019-01-10T00:32:47.220Z,0.40
2019-01-10T00:35:15.803Z,0.40
2019-01-10T00:37:44.477Z,0.30
2019-01-10T00:40:15.684Z,0.30
2019-01-10T00:42:49.735Z,0.40
2019-01-10T00:45:17.888Z,0.40
2019-01-10T00:47:47.075Z,0.40
2019-01-10T00:50:18.154Z,0.40
2019-01-10T00:52:46.696Z,0.40
2019-01-10T00:55:15.188Z,0.40
2019-01-10T00:57:43.691Z,0.40
2019-01-10T01:00:18.728Z,0.40
2019-01-10T01:02:47.285Z,0.40
2019-01-10T01:05:15.971Z,0.40
2019-01-10T01:07:44.415Z,0.40
2019-01-10T01:10:15.928Z,0.30
2019-01-10T01:12:46.424Z,0.30
2019-01-10T01:15:16.882Z,0.30
2019-01-10T01:17:45.353Z,0.30
2019-01-10T01:20:16.856Z,0.30
2019-01-10T01:22:45.456Z,0.30
2019-01-10T01:25:15.021Z,0.30
2019-01-10T01:27:43.820Z,0.30
2019-01-10T01:30:20.243Z,0.30
2019-01-10T01:32:48.748Z,0.40
2019-01-10T01:35:17.244Z,0.30
2019-01-10T01:37:45.686Z,0.30
2019-01-10T01:40:18.894Z,0.30
2019-01-10T01:42:47.466Z,0.30
2019-01-10T01:45:17.665Z,0.20
2019-01-10T01:47:46.496Z,0.20
2019-01-10T01:50:17.470Z,0.20
2019-01-10T01:52:46.381Z,0.20
2019-01-10T01:55:14.856Z,0.20
2019-01-10T01:57:43.312Z,0.30
2019-01-10T02:00:15.078Z,0.30
2019-01-10T02:02:43.601Z,0.30
2019-01-10T02:05:12.330Z,0.30
2019-01-10T02:07:40.787Z,0.30
2019-01-10T02:10:12.427Z,0.30
2019-01-10T02:12:40.873Z,0.30
2019-01-10T02:15:22.250Z,0.30
2019-01-10T02:17:50.678Z,0.30
2019-01-10T02:20:19.615Z,0.20
2019-01-10T02:22:48.130Z,0.20
2019-01-10T02:25:17.313Z,0.10
2019-01-10T02:27:45.769Z,0.10
2019-01-10T02:30:17.320Z,0.10
2019-01-10T02:32:46.090Z,0.00
2019-01-10T02:35:14.946Z,0.00
2019-01-10T02:37:43.363Z,0.00
2019-01-10T02:40:11.952Z,0.00
2019-01-10T02:42:40.380Z,0.00
2019-01-10T02:45:14.518Z,0.10
2019-01-10T02:47:42.934Z,0.10
2019-01-10T02:50:17.397Z,0.10
2019-01-10T02:52:45.850Z,0.10
2019-01-10T02:55:14.341Z,0.10
2019-01-10T02:57:42.760Z,0.20
2019-01-10T03:00:14.348Z,0.10
2019-01-10T03:02:42.850Z,0.20
2019-01-10T03:05:11.357Z,0.20
2019-01-10T03:07:39.856Z,0.20
2019-01-10T03:10:11.612Z,0.20
2019-01-10T03:12:40.023Z,0.20
2019-01-10T03:15:09.096Z,0.20
2019-01-10T03:17:37.746Z,0.20
2019-01-10T03:20:09.425Z,0.20
2019-01-10T03:22:38.154Z,0.20
2019-01-10T03:25:08.129Z,0.20
2019-01-10T03:27:36.701Z,0.30
2019-01-10T03:30:11.096Z,0.20
2019-01-10T03:32:42.577Z,0.20
2019-01-10T03:35:11.508Z,0.20
2019-01-10T03:37:39.931Z,0.20
2019-01-10T03:40:16.803Z,0.20
2019-01-10T03:42:45.368Z,0.20
2019-01-10T03:45:16.304Z,0.30
2019-01-10T03:47:44.726Z,0.30
2019-01-10T03:50:15.077Z,0.30
2019-01-10T03:52:43.584Z,0.30
2019-01-10T03:55:12.066Z,0.30
2019-01-10T03:57:40.499Z,0.30
2019-01-10T04:00:23.295Z,0.30
2019-01-10T04:02:52.209Z,0.30
2019-01-10T04:05:20.982Z,0.30
2019-01-10T04:07:49.553Z,0.30
2019-01-10T04:10:19.259Z,0.20
2019-01-10T04:12:47.792Z,0.20
2019-01-10T04:15:17.033Z,0.20
2019-01-10T04:17:45.477Z,0.20
2019-01-10T04:20:16.129Z,0.20
2019-01-10T04:22:44.787Z,0.20
2019-01-10T04:25:14.147Z,0.20
2019-01-10T04:27:42.664Z,0.30
2019-01-10T04:30:16.498Z,0.30
2019-01-10T04:32:44.943Z,0.20
2019-01-10T04:35:13.502Z,0.20
2019-01-10T04:37:41.956Z,0.20
2019-01-10T04:40:18.148Z,0.20
2019-01-10T04:42:46.647Z,0.20
2019-01-10T04:45:15.435Z,0.20
2019-01-10T04:47:43.874Z,0.20
2019-01-10T04:50:14.225Z,0.20
2019-01-10T04:52:42.759Z,0.20
2019-01-10T04:55:12.455Z,0.20
2019-01-10T04:57:41.015Z,0.20
2019-01-10T05:00:15.500Z,0.20
2019-01-10T05:02:43.945Z,0.30
2019-01-10T05:05:12.634Z,0.20
2019-01-10T05:07:41.181Z,0.20
2019-01-10T05:10:11.175Z,0.20
2019-01-10T05:12:41.709Z,0.20
2019-01-10T05:15:13.747Z,0.10
2019-01-10T05:17:42.239Z,0.20
2019-01-10T05:20:16.402Z,0.10
2019-01-10T05:22:44.951Z,0.10
2019-01-10T05:25:13.512Z,0.10
2019-01-10T05:27:41.939Z,0.20
2019-01-10T05:30:13.450Z,0.20
2019-01-10T05:32:41.877Z,0.20
2019-01-10T05:35:10.385Z,0.20
2019-01-10T05:37:38.816Z,0.20
2019-01-10T05:40:12.279Z,0.30
2019-01-10T05:42:40.687Z,0.30
2019-01-10T05:45:12.155Z,0.30
2019-01-10T05:47:42.835Z,0.30
2019-01-10T05:50:13.280Z,0.30
2019-01-10T05:52:41.733Z,0.20
2019-01-10T05:55:12.665Z,0.20
2019-01-10T05:57:41.083Z,0.20
2019-01-10T06:00:21.441Z,0.10
2019-01-10T06:02:49.914Z,0.00
2019-01-10T06:05:18.442Z,-0.10
2019-01-10T06:07:46.875Z,-0.10
2019-01-10T06:10:18.398Z,-0.20
2019-01-10T06:12:46.909Z,-0.20
2019-01-10T06:15:16.327Z,-0.20
2019-01-10T06:17:44.753Z,-0.20
2019-01-10T06:20:22.006Z,-0.20
2019-01-10T06:22:50.532Z,-0.10
2019-01-10T06:25:18.961Z,-0.10
2019-01-10T06:27:47.391Z,-0.10
2019-01-10T06:30:18.369Z,-0.10
2019-01-10T06:32:46.808Z,-0.10
2019-01-10T06:35:15.242Z,-0.10
2019-01-10T06:37:43.675Z,-0.10
2019-01-10T06:40:14.999Z,-0.10
2019-01-10T06:42:43.450Z,-0.10
2019-01-10T06:45:14.498Z,-0.10
2019-01-10T06:47:42.996Z,-0.10
2019-01-10T06:50:14.099Z,-0.20
2019-01-10T06:52:42.603Z,-0.20
2019-01-10T06:55:11.464Z,-0.30
2019-01-10T06:57:39.887Z,-0.40
2019-01-10T07:00:19.764Z,-0.40
2019-01-10T07:02:48.883Z,-0.50
2019-01-10T07:05:17.312Z,-0.50
2019-01-10T07:07:45.757Z,-0.60
2019-01-10T07:10:17.264Z,-0.60
2019-01-10T07:12:45.707Z,-0.60
2019-01-10T07:15:14.581Z,-0.60
2019-01-10T07:17:43.028Z,-0.60
2019-01-10T07:20:13.110Z,-0.60
2019-01-10T07:22:47.338Z,-0.60
2019-01-10T07:25:15.922Z,-0.70
2019-01-10T07:27:44.356Z,-0.70
2019-01-10T07:30:21.712Z,-0.70
2019-01-10T07:32:50.182Z,-0.70
2019-01-10T07:35:18.702Z,-0.70
2019-01-10T07:37:52.481Z,-0.60
2019-01-10T07:40:21.000Z,-0.60
2019-01-10T07:42:49.529Z,-0.60
2019-01-10T07:45:24.790Z,-0.60
2019-01-10T07:47:53.296Z,-0.60
2019-01-10T07:50:29.358Z,-0.50
2019-01-10T07:52:57.805Z,-0.50
2019-01-10T07:55:26.256Z,-0.50
2019-01-10T07:57:55.615Z,-0.40
2019-01-10T08:00:24.059Z,-0.30
2019-01-10T08:02:52.527Z,-0.30
2019-01-10T08:05:20.963Z,-0.20
2019-01-10T08:07:49.537Z,-0.10
2019-01-10T08:10:18.024Z,0.00
2019-01-10T08:12:46.604Z,0.10
2019-01-10T08:15:20.800Z,0.20
2019-01-10T08:17:49.312Z,0.20
2019-01-10T08:20:18.017Z,0.30
2019-01-10T08:22:46.522Z,0.40
2019-01-10T08:25:14.942Z,0.40
2019-01-10T08:27:43.436Z,0.50
2019-01-10T08:30:15.171Z,0.50
2019-01-10T08:32:43.605Z,0.60
2019-01-10T08:35:13.395Z,0.70
2019-01-10T08:37:41.815Z,0.70
2019-01-10T08:40:10.986Z,0.70
2019-01-10T08:42:39.463Z,0.70
2019-01-10T08:45:10.017Z,0.80
2019-01-10T08:47:38.947Z,0.80
2019-01-10T08:50:10.483Z,0.80
2019-01-10T08:52:38.993Z,0.80
2019-01-10T08:55:07.756Z,0.80
2019-01-10T08:57:36.471Z,0.80
2019-01-10T09:00:09.673Z,0.90
2019-01-10T09:02:38.310Z,0.90
2019-01-10T09:05:07.692Z,0.90
2019-01-10T09:07:37.563Z,1.00
2019-01-10T09:10:09.123Z,0.90
2019-01-10T09:12:37.767Z,1.00
2019-01-10T09:15:08.699Z,1.00
2019-01-10T09:17:37.609Z,1.00
2019-01-10T09:20:09.097Z,1.00
2019-01-10T09:22:37.632Z,1.10
2019-01-10T09:25:07.268Z,1.10
2019-01-10T09:27:38.576Z,1.10
2019-01-10T09:30:13.125Z,1.20
2019-01-10T09:32:41.673Z,1.20
2019-01-10T09:35:10.114Z,1.20
2019-01-10T09:37:38.596Z,1.20
2019-01-10T09:40:15.567Z,1.20
2019-01-10T09:42:44.054Z,1.10
2019-01-10T09:45:15.682Z,1.10
2019-01-10T09:47:44.123Z,1.10
2019-01-10T09:50:15.114Z,1.10
2019-01-10T09:52:43.568Z,1.10
2019-01-10T09:55:12.576Z,1.10
2019-01-10T09:57:41.308Z,1.10
2019-01-10T10:00:15.602Z,1.20
2019-01-10T10:02:44.279Z,1.30
2019-01-10T10:05:12.896Z,1.30
2019-01-10T10:07:41.458Z,1.40
2019-01-10T10:10:18.028Z,1.40
2019-01-10T10:12:46.516Z,1.40
2019-01-10T10:15:17.145Z,1.40
2019-01-10T10:17:45.654Z,1.30
2019-01-10T10:20:17.105Z,1.30
2019-01-10T10:22:45.784Z,1.30
2019-01-10T10:25:14.282Z,1.40
2019-01-10T10:27:42.728Z,1.50
2019-01-10T10:30:14.595Z,1.50
2019-01-10T10:32:43.896Z,1.50
2019-01-10T10:35:12.789Z,1.50
2019-01-10T10:37:41.311Z,1.50
2019-01-10T10:40:14.976Z,1.60
2019-01-10T10:42:43.488Z,1.60
2019-01-10T10:45:14.244Z,1.60
2019-01-10T10:47:42.745Z,1.80
2019-01-10T10:50:17.118Z,1.80
2019-01-10T10:52:45.699Z,1.90
2019-01-10T10:55:14.257Z,2.00
2019-01-10T10:57:42.939Z,2.10
2019-01-10T11:00:17.599Z,2.10
2019-01-10T11:02:46.192Z,2.10
2019-01-10T11:05:14.765Z,2.10
2019-01-10T11:07:43.207Z,2.10
2019-01-10T11:10:14.778Z,2.00
2019-01-10T11:12:43.288Z,2.00
2019-01-10T11:15:12.171Z,2.00
2019-01-10T11:17:41.394Z,1.90
2019-01-10T11:20:12.756Z,2.10
2019-01-10T11:22:41.275Z,2.20
2019-01-10T11:25:15.158Z,2.30
2019-01-10T11:27:43.717Z,2.30
2019-01-10T11:30:17.611Z,2.20
2019-01-10T11:32:46.214Z,2.00
2019-01-10T11:35:14.904Z,2.00
2019-01-10T11:37:43.375Z,1.80
2019-01-10T11:40:14.944Z,1.80
2019-01-10T11:42:43.432Z,1.80
2019-01-10T11:45:15.094Z,1.70
2019-01-10T11:47:43.565Z,1.70
2019-01-10T11:50:14.323Z,1.70
2019-01-10T11:52:43.407Z,1.70
2019-01-10T11:55:12.178Z,1.70
2019-01-10T11:57:40.751Z,1.70
2019-01-10T12:00:21.043Z,1.60
2019-01-10T12:02:49.471Z,1.50
2019-01-10T12:05:18.826Z,1.60
2019-01-10T12:07:47.424Z,1.60
2019-01-10T12:10:15.867Z,1.60
2019-01-10T12:12:44.291Z,1.60
2019-01-10T12:15:13.460Z,1.70
2019-01-10T12:17:41.925Z,1.70
2019-01-10T12:20:13.137Z,1.80
2019-01-10T12:22:41.569Z,1.70
2019-01-10T12:25:12.032Z,1.80
2019-01-10T12:27:40.469Z,1.90
2019-01-10T12:30:20.537Z,1.90
2019-01-10T12:32:49.138Z,1.80
2019-01-10T12:35:17.579Z,1.90
2019-01-10T12:37:46.252Z,1.90
2019-01-10T12:40:16.077Z,1.80
2019-01-10T12:42:44.628Z,1.70
2019-01-10T12:45:17.686Z,1.70
2019-01-10T12:47:46.240Z,1.70
2019-01-10T12:50:23.985Z,1.80
2019-01-10T12:52:52.409Z,1.70
2019-01-10T12:55:21.566Z,1.70
2019-01-10T12:57:49.981Z,1.70
2019-01-10T13:00:20.692Z,1.80
2019-01-10T13:02:49.165Z,1.80
2019-01-10T13:05:17.683Z,1.70
2019-01-10T13:07:46.182Z,1.60
2019-01-10T13:10:16.920Z,1.60
2019-01-10T13:12:45.460Z,1.60
2019-01-10T13:15:24.997Z,1.70
2019-01-10T13:17:53.619Z,1.70
2019-01-10T13:20:22.287Z,1.60
2019-01-10T13:22:50.709Z,1.60
2019-01-10T13:25:20.369Z,1.70
2019-01-10T13:27:49.619Z,1.70
2019-01-10T13:30:22.723Z,1.60
2019-01-10T13:32:51.806Z,1.70
2019-01-10T13:35:20.499Z,1.70
2019-01-10T13:37:48.928Z,1.70
2019-01-10T13:40:24.333Z,1.70
2019-01-10T13:42:53.532Z,1.70
2019-01-10T13:45:22.021Z,1.70
2019-01-10T13:47:50.598Z,1.80
2019-01-10T13:50:25.416Z,1.80
2019-01-10T13:52:54.071Z,1.90
2019-01-10T13:55:22.955Z,1.80
2019-01-10T13:57:51.377Z,1.70
2019-01-10T14:00:25.204Z,1.70
2019-01-10T14:02:56.212Z,1.80
2019-01-10T14:05:25.980Z,1.80
2019-01-10T14:07:55.119Z,1.70
2019-01-10T14:10:25.947Z,1.70
2019-01-10T14:12:54.962Z,1.70
2019-01-10T14:15:26.527Z,1.70
2019-01-10T14:17:55.251Z,1.70
2019-01-10T14:20:23.927Z,1.60
2019-01-10T14:22:52.379Z,1.60
2019-01-10T14:25:22.057Z,1.60
2019-01-10T14:27:50.538Z,1.60
2019-01-10T14:30:28.142Z,1.60
2019-01-10T14:33:04.765Z,1.60
2019-01-10T14:35:36.277Z,1.60
2019-01-10T14:38:05.177Z,1.60
2019-01-10T14:40:37.171Z,1.60
2019-01-10T14:43:06.803Z,1.60
2019-01-10T14:45:37.179Z,1.50
2019-01-10T14:48:06.494Z,1.50
2019-01-10T14:50:35.285Z,1.50
2019-01-10T14:53:08.113Z,1.50
2019-01-10T14:55:36.997Z,1.50
2019-01-10T14:58:05.982Z,1.50
2019-01-10T15:00:35.126Z,1.50
2019-01-10T15:03:03.828Z,1.50
2019-01-10T15:05:34.674Z,1.50
2019-01-10T15:08:03.406Z,1.40
2019-01-10T15:10:35.909Z,1.40
2019-01-10T15:13:05.547Z,1.40
2019-01-10T15:15:45.731Z,1.40
2019-01-10T15:18:14.192Z,1.30
2019-01-10T15:20:42.676Z,1.30
2019-01-10T15:23:11.329Z,1.30
2019-01-10T15:25:39.988Z,1.20
2019-01-10T15:28:08.508Z,1.20
2019-01-10T15:30:42.727Z,1.20
2019-01-10T15:33:11.394Z,1.20
2019-01-10T15:35:39.967Z,1.20
2019-01-10T15:38:13.746Z,1.20
2019-01-10T15:40:38.688Z,1.20
2019-01-10T15:43:07.736Z,1.20
2019-01-10T15:45:37.941Z,1.20
2019-01-10T15:48:07.660Z,1.10
2019-01-10T15:50:36.487Z,1.10
2019-01-10T15:53:05.237Z,1.10
2019-01-10T15:55:34.914Z,1.10
2019-01-10T15:58:08.646Z,1.10
2019-01-10T16:00:37.211Z,1.10
2019-01-10T16:03:06.490Z,1.10
2019-01-10T16:05:35.210Z,1.10
2019-01-10T16:08:04.356Z,1.10
2019-01-10T16:10:32.977Z,1.10
2019-01-10T16:13:01.494Z,1.10
2019-01-10T16:15:29.893Z,1.10
2019-01-10T16:17:58.319Z,1.10
2019-01-10T16:20:27.116Z,1.10
2019-01-10T16:22:56.269Z,1.10
2019-01-10T16:25:24.729Z,1.00
2019-01-10T16:27:53.355Z,1.00
2019-01-10T16:30:28.098Z,1.00
2019-01-10T16:32:56.609Z,1.00
2019-01-10T16:35:25.376Z,0.90
2019-01-10T16:37:54.027Z,0.90
2019-01-10T16:40:22.672Z,0.90
2019-01-10T16:42:51.071Z,0.90
2019-01-10T16:45:22.222Z,0.90
2019-01-10T16:47:50.617Z,0.90
2019-01-10T16:50:19.108Z,0.80
2019-01-10T16:52:47.529Z,0.80
2019-01-10T16:55:16.404Z,0.90
2019-01-10T16:57:44.824Z,0.80
2019-01-10T17:00:27.959Z,0.90
2019-01-10T17:02:56.414Z,0.80
2019-01-10T17:05:25.084Z,0.80
2019-01-10T17:07:53.752Z,0.80
2019-01-10T17:10:22.277Z,0.80
2019-01-10T17:12:50.683Z,0.80
2019-01-10T17:15:19.285Z,0.80
2019-01-10T17:17:47.719Z,0.80
2019-01-10T17:20:25.783Z,0.80
2019-01-10T17:22:54.337Z,0.80
2019-01-10T17:25:22.798Z,0.80
2019-01-10T17:27:51.207Z,0.80
2019-01-10T17:30:24.939Z,0.70
2019-01-10T17:32:53.609Z,0.70
2019-01-10T17:35:24.947Z,0.70
2019-01-10T17:37:53.491Z,0.70
2019-01-10T17:40:34.215Z,0.70
2019-01-10T17:43:05.506Z,0.70
2019-01-10T17:45:35.579Z,0.70
2019-01-10T17:48:06.224Z,0.70
2019-01-10T17:50:34.853Z,0.60
2019-01-10T17:53:03.468Z,0.60
2019-01-10T17:55:32.814Z,0.60
2019-01-10T17:58:02.680Z,0.60
2019-01-10T18:00:31.100Z,0.60
2019-01-10T18:02:59.524Z,0.60
2019-01-10T18:05:28.030Z,0.60
2019-01-10T18:07:56.481Z,0.60
2019-01-10T18:10:24.997Z,0.60
2019-01-10T18:12:53.544Z,0.60
2019-01-10T18:15:24.923Z,0.60
2019-01-10T18:17:53.515Z,0.60
2019-01-10T18:20:27.713Z,0.60
2019-01-10T18:22:56.279Z,0.60
2019-01-10T18:25:25.146Z,0.60
2019-01-10T18:27:53.615Z,0.60
2019-01-10T18:30:23.954Z,0.60
2019-01-10T18:32:52.386Z,0.60
2019-01-10T18:35:26.127Z,0.60
2019-01-10T18:37:51.411Z,0.60
2019-01-10T18:40:19.983Z,0.60
2019-01-10T18:42:48.492Z,0.60
2019-01-10T18:45:25.656Z,0.60
2019-01-10T18:47:57.230Z,0.50
2019-01-10T18:50:25.410Z,0.50
2019-01-10T18:52:54.107Z,0.50
2019-01-10T18:55:23.736Z,0.50
2019-01-10T18:57:52.193Z,0.40
2019-01-10T19:00:22.983Z,0.40
2019-01-10T19:02:52.557Z,0.30
2019-01-10T19:05:21.042Z,0.20
2019-01-10T19:07:50.103Z,0.10
2019-01-10T19:10:20.561Z,0.00
2019-01-10T19:12:48.988Z,-0.10
2019-01-10T19:15:17.499Z,-0.20
2019-01-10T19:17:45.964Z,-0.30
2019-01-10T19:20:26.285Z,-0.40
2019-01-10T19:22:56.082Z,-0.50
2019-01-10T19:25:24.516Z,-0.50
2019-01-10T19:27:53.000Z,-0.60
2019-01-10T19:30:23.897Z,-0.60
2019-01-10T19:32:52.319Z,-0.70
2019-01-10T19:35:20.779Z,-0.80
2019-01-10T19:37:49.501Z,-0.80
2019-01-10T19:40:20.348Z,-0.80
2019-01-10T19:42:50.730Z,-0.90
2019-01-10T19:45:21.192Z,-0.90
2019-01-10T19:47:49.695Z,-0.90
2019-01-10T19:50:23.248Z,-1.00
2019-01-10T19:52:51.684Z,-1.00
2019-01-10T19:55:21.419Z,-1.00
2019-01-10T19:57:50.103Z,-1.00
2019-01-10T20:00:27.482Z,-1.00
2019-01-10T20:02:56.101Z,-1.00
2019-01-10T20:05:24.565Z,-1.00
2019-01-10T20:07:53.053Z,-1.10
2019-01-10T20:10:21.712Z,-1.00
2019-01-10T20:12:52.141Z,-1.10
2019-01-10T20:15:21.367Z,-1.10
2019-01-10T20:17:49.900Z,-1.10
2019-01-10T20:20:27.332Z,-1.10
2019-01-10T20:22:55.892Z,-1.10
2019-01-10T20:25:24.452Z,-1.20
2019-01-10T20:27:52.960Z,-1.10
2019-01-10T20:30:21.409Z,-1.10
2019-01-10T20:32:50.033Z,-1.10
2019-01-10T20:35:18.452Z,-1.20
2019-01-10T20:37:46.917Z,-1.20
2019-01-10T20:40:17.671Z,-1.20
2019-01-10T20:42:46.241Z,-1.30
2019-01-10T20:45:14.922Z,-1.30
2019-01-10T20:47:43.434Z,-1.30
2019-01-10T20:50:16.502Z,-1.30
2019-01-10T20:52:44.932Z,-1.30
2019-01-10T20:55:15.216Z,-1.30
2019-01-10T20:57:43.695Z,-1.40
2019-01-10T21:00:21.080Z,-1.40
2019-01-10T21:02:50.336Z,-1.40
2019-01-10T21:05:18.951Z,-1.40
2019-01-10T21:07:49.027Z,-1.40
2019-01-10T21:10:19.694Z,-1.40
2019-01-10T21:12:48.926Z,-1.40
2019-01-10T21:15:20.007Z,-1.40
2019-01-10T21:17:49.239Z,-1.40
2019-01-10T21:20:17.880Z,-1.50
2019-01-10T21:22:47.002Z,-1.40
2019-01-10T21:25:15.984Z,-1.50
2019-01-10T21:27:51.428Z,-1.50
2019-01-10T21:30:25.645Z,-1.50
2019-01-10T21:32:54.107Z,-1.50
2019-01-10T21:35:22.536Z,-1.50
2019-01-10T21:37:50.962Z,-1.50
2019-01-10T21:40:21.410Z,-1.50
2019-01-10T21:42:51.502Z,-1.60
2019-01-10T21:45:35.788Z,-1.60
2019-01-10T21:48:05.594Z,-1.60
2019-01-10T21:50:34.578Z,-1.60
2019-01-10T21:53:06.063Z,-1.60
2019-01-10T21:55:34.999Z,-1.60
2019-01-10T21:58:06.955Z,-1.60
2019-01-10T22:00:36.313Z,-1.60
2019-01-10T22:03:05.005Z,-1.60
2019-01-10T22:05:33.621Z,-1.60
2019-01-10T22:08:04.125Z,-1.60
2019-01-10T22:10:35.037Z,-1.60
2019-01-10T22:13:06.637Z,-1.60
2019-01-10T22:15:35.377Z,-1.50
2019-01-10T22:18:04.974Z,-1.50
2019-01-10T22:20:35.364Z,-1.50
2019-01-10T22:23:06.036Z,-1.50
2019-01-10T22:25:35.381Z,-1.40
2019-01-10T22:28:09.009Z,-1.40
2019-01-10T22:30:37.471Z,-1.40
2019-01-10T22:33:08.148Z,-1.40
2019-01-10T22:35:36.747Z,-1.40
2019-01-10T22:38:05.377Z,-1.40
2019-01-10T22:40:36.637Z,-1.40
2019-01-10T22:43:07.291Z,-1.40
2019-01-10T22:45:35.943Z,-1.30
2019-01-10T22:48:05.467Z,-1.30
2019-01-10T22:50:36.385Z,-1.30
2019-01-10T22:53:04.975Z,-1.30
2019-01-10T22:55:34.159Z,-1.30
2019-01-10T22:58:02.653Z,-1.30
2019-01-10T23:00:51.980Z,-1.30
2019-01-10T23:03:20.610Z,-1.30
2019-01-10T23:05:49.101Z,-1.30
2019-01-10T23:08:20.269Z,-1.30
2019-01-10T23:10:49.347Z,-1.30
2019-01-10T23:13:17.861Z,-1.30
2019-01-10T23:15:46.297Z,-1.40
2019-01-10T23:18:14.784Z,-1.40
2019-01-10T23:20:43.216Z,-1.40
2019-01-10T23:23:13.005Z,-1.40
2019-01-10T23:25:41.548Z,-1.40
2019-01-10T23:28:10.824Z,-1.40
2019-01-10T23:30:53.196Z,-1.40
2019-01-10T23:33:22.599Z,-1.40
2019-01-10T23:35:59.619Z,-1.40
2019-01-10T23:38:28.285Z,-1.50
2019-01-10T23:40:56.948Z,-1.50
2019-01-10T23:43:25.613Z,-1.50
2019-01-10T23:45:54.162Z,-1.40
2019-01-10T23:48:33.825Z,-1.40
2019-01-10T23:51:04.428Z,-1.40
2019-01-10T23:53:33.471Z,-1.40
2019-01-10T23:56:03.191Z,-1.40
2019-01-10T23:58:33.742Z,-1.40
